sensor_id;sensor_type;location;lat;lon;timestamp;pressure;altitude;pressure_sealevel;temperature;humidity
14885;BME280;7534;50.762;7.000;2023-01-31T00:01:31;88728.31;;;-143.16;64.78
14885;BME280;7534;50.762;7.000;2023-01-31T00:04:04;88750.53;;;-143.16;64.65
14885;BME280;7534;50.762;7.000;2023-01-31T00:06:40;88764.66;;;-143.16;64.18
14885;BME280;7534;50.762;7.000;2023-01-31T00:09:10;88754.56;;;-143.16;64.61
14885;BME280;7534;50.762;7.000;2023-01-31T00:14:05;88847.44;;;-143.16;63.97
14885;BME280;7534;50.762;7.000;2023-01-31T00:16:31;88746.47;;;-143.16;64.04
14885;BME280;7534;50.762;7.000;2023-01-31T00:18:56;88702.06;;;-143.16;64.45
14885;BME280;7534;50.762;7.000;2023-01-31T00:21:25;88728.31;;;-143.16;64.05
14885;BME280;7534;50.762;7.000;2023-01-31T00:23:53;88746.47;;;-143.16;64.15
14885;BME280;7534;50.762;7.000;2023-01-31T00:26:22;88746.47;;;-143.16;64.15
14885;BME280;7534;50.762;7.000;2023-01-31T00:28:51;88772.72;;;-143.16;64.50
14885;BME280;7534;50.762;7.000;2023-01-31T00:31:18;88730.31;;;-143.16;64.20
14885;BME280;7534;50.762;7.000;2023-01-31T00:33:48;88691.97;;;-143.16;64.58
14885;BME280;7534;50.762;7.000;2023-01-31T00:36:17;88770.72;;;-143.16;64.72
14885;BME280;7534;50.762;7.000;2023-01-31T00:38:44;88780.81;;;-143.16;65.09
14885;BME280;7534;50.762;7.000;2023-01-31T00:41:12;88738.41;;;-143.16;65.09
14885;BME280;7534;50.762;7.000;2023-01-31T00:43:38;88691.97;;;-143.16;64.73
14885;BME280;7534;50.762;7.000;2023-01-31T00:46:05;88722.25;;;-143.16;64.79
14885;BME280;7534;50.762;7.000;2023-01-31T00:48:31;88835.31;;;-143.16;64.95
14885;BME280;7534;50.762;7.000;2023-01-31T00:50:57;88805.03;;;-143.16;65.04
14885;BME280;7534;50.762;7.000;2023-01-31T00:53:23;88760.63;;;-143.16;65.41
14885;BME280;7534;50.762;7.000;2023-01-31T00:55:51;88750.53;;;-143.16;65.44
14885;BME280;7534;50.762;7.000;2023-01-31T00:58:18;88758.59;;;-143.16;65.47
14885;BME280;7534;50.762;7.000;2023-01-31T01:00:44;88801.00;;;-143.16;65.12
14885;BME280;7534;50.762;7.000;2023-01-31T01:03:10;88768.69;;;-143.16;65.10
14885;BME280;7534;50.762;7.000;2023-01-31T01:05:36;88829.25;;;-143.16;64.64
14885;BME280;7534;50.762;7.000;2023-01-31T01:08:03;88726.28;;;-143.16;64.83
14885;BME280;7534;50.762;7.000;2023-01-31T01:10:29;88752.53;;;-143.16;64.73
14885;BME280;7534;50.762;7.000;2023-01-31T01:12:54;88780.81;;;-143.16;64.47
14885;BME280;7534;50.762;7.000;2023-01-31T01:15:20;88700.03;;;-143.16;65.25
14885;BME280;7534;50.762;7.000;2023-01-31T01:17:46;88825.22;;;-143.16;66.00
14885;BME280;7534;50.762;7.000;2023-01-31T01:20:12;88794.94;;;-143.16;65.97
14885;BME280;7534;50.762;7.000;2023-01-31T01:22:37;88772.72;;;-143.16;66.22
14885;BME280;7534;50.762;7.000;2023-01-31T01:25:04;88798.97;;;-143.16;66.53
14885;BME280;7534;50.762;7.000;2023-01-31T01:27:30;88813.09;;;-143.16;66.32
14885;BME280;7534;50.762;7.000;2023-01-31T01:29:56;88798.97;;;-143.16;66.35
14885;BME280;7534;50.762;7.000;2023-01-31T01:32:23;88825.22;;;-143.16;65.71
14885;BME280;7534;50.762;7.000;2023-01-31T01:34:49;88786.84;;;-143.16;66.09
14885;BME280;7534;50.762;7.000;2023-01-31T01:37:14;88847.44;;;-143.16;65.97
14885;BME280;7534;50.762;7.000;2023-01-31T01:39:49;88843.41;;;-143.16;66.22
14885;BME280;7534;50.762;7.000;2023-01-31T01:42:19;88873.69;;;-143.16;66.36
14885;BME280;7534;50.762;7.000;2023-01-31T01:45:01;88847.44;;;-143.16;66.52
14885;BME280;7534;50.762;7.000;2023-01-31T01:47:48;88889.84;;;-143.16;66.28
14885;BME280;7534;50.762;7.000;2023-01-31T01:50:30;88825.22;;;-143.16;66.56
14885;BME280;7534;50.762;7.000;2023-01-31T01:53:17;88784.84;;;-143.16;66.91
14885;BME280;7534;50.762;7.000;2023-01-31T01:55:56;88817.16;;;-143.16;66.56
14885;BME280;7534;50.762;7.000;2023-01-31T01:58:57;88821.19;;;-143.16;66.95
14885;BME280;7534;50.762;7.000;2023-01-31T02:01:29;88815.13;;;-143.16;66.56
14885;BME280;7534;50.762;7.000;2023-01-31T02:03:56;88845.41;;;-143.16;66.46
14885;BME280;7534;50.762;7.000;2023-01-31T02:06:22;88859.53;;;-143.16;66.10
14885;BME280;7534;50.762;7.000;2023-01-31T02:08:48;88839.34;;;-143.16;66.23
14885;BME280;7534;50.762;7.000;2023-01-31T02:11:25;88829.25;;;-143.16;66.03
14885;BME280;7534;50.762;7.000;2023-01-31T02:14:04;88843.41;;;-143.16;65.92
14885;BME280;7534;50.762;7.000;2023-01-31T02:16:31;88811.09;;;-143.16;65.57
14885;BME280;7534;50.762;7.000;2023-01-31T02:18:57;88730.31;;;-143.16;65.57
14885;BME280;7534;50.762;7.000;2023-01-31T02:31:03;88778.78;;;-143.16;65.20
14885;BME280;7534;50.762;7.000;2023-01-31T02:36:53;88821.19;;;-143.16;64.89
14885;BME280;7534;50.762;7.000;2023-01-31T02:39:34;88863.59;;;-143.16;64.46
14885;BME280;7534;50.762;7.000;2023-01-31T02:42:13;88843.41;;;-143.16;64.78
14885;BME280;7534;50.762;7.000;2023-01-31T02:45:02;88851.47;;;-143.16;64.84
14885;BME280;7534;50.762;7.000;2023-01-31T02:48:14;88825.22;;;-143.16;65.09
14885;BME280;7534;50.762;7.000;2023-01-31T02:51:16;88841.38;;;-143.16;64.95
14885;BME280;7534;50.762;7.000;2023-01-31T02:54:08;88936.28;;;-143.16;64.84
14885;BME280;7534;50.762;7.000;2023-01-31T02:56:38;88879.75;;;-143.16;65.23
14885;BME280;7534;50.762;7.000;2023-01-31T02:59:18;88950.41;;;-143.16;65.49
14885;BME280;7534;50.762;7.000;2023-01-31T03:01:54;88883.78;;;-143.16;65.74
14885;BME280;7534;50.762;7.000;2023-01-31T03:04:21;88861.56;;;-143.16;65.36
14885;BME280;7534;50.762;7.000;2023-01-31T03:07:21;88912.03;;;-143.16;65.45
14885;BME280;7534;50.762;7.000;2023-01-31T03:10:06;88875.69;;;-143.16;65.61
14885;BME280;7534;50.762;7.000;2023-01-31T03:13:28;88891.84;;;-143.16;66.27
14885;BME280;7534;50.762;7.000;2023-01-31T03:16:12;88918.09;;;-143.16;66.55
14885;BME280;7534;50.762;7.000;2023-01-31T03:19:20;88863.59;;;-143.16;66.47
14885;BME280;7534;50.762;7.000;2023-01-31T03:22:06;88877.72;;;-143.16;67.03
14885;BME280;7534;50.762;7.000;2023-01-31T03:24:33;88912.03;;;-143.16;67.49
14885;BME280;7534;50.762;7.000;2023-01-31T03:27:00;88914.06;;;-143.16;67.48
14885;BME280;7534;50.762;7.000;2023-01-31T03:29:34;88932.22;;;-143.16;67.64
14885;BME280;7534;50.762;7.000;2023-01-31T03:32:19;88831.28;;;-143.16;67.33
14885;BME280;7534;50.762;7.000;2023-01-31T03:34:48;88867.63;;;-143.16;67.33
14885;BME280;7534;50.762;7.000;2023-01-31T03:39:59;88879.75;;;-143.16;67.03
14885;BME280;7534;50.762;7.000;2023-01-31T03:43:00;88887.81;;;-143.16;66.91
14885;BME280;7534;50.762;7.000;2023-01-31T03:46:01;88910.03;;;-143.16;66.48
14885;BME280;7534;50.762;7.000;2023-01-31T03:48:44;88891.84;;;-143.16;66.99
14885;BME280;7534;50.762;7.000;2023-01-31T03:51:19;88859.53;;;-143.16;66.97
14885;BME280;7534;50.762;7.000;2023-01-31T03:54:02;88839.34;;;-143.16;67.52
14885;BME280;7534;50.762;7.000;2023-01-31T03:56:42;89004.91;;;-143.16;67.61
14885;BME280;7534;50.762;7.000;2023-01-31T03:59:23;88932.22;;;-143.16;67.39
14885;BME280;7534;50.762;7.000;2023-01-31T04:01:54;89002.91;;;-143.16;67.76
14885;BME280;7534;50.762;7.000;2023-01-31T04:04:30;89004.91;;;-143.16;67.61
14885;BME280;7534;50.762;7.000;2023-01-31T04:06:58;88920.13;;;-143.16;67.83
14885;BME280;7534;50.762;7.000;2023-01-31T04:09:25;88984.72;;;-143.16;67.96
14885;BME280;7534;50.762;7.000;2023-01-31T04:11:51;88914.06;;;-143.16;68.35
14885;BME280;7534;50.762;7.000;2023-01-31T04:14:17;88889.84;;;-143.16;68.30
14885;BME280;7534;50.762;7.000;2023-01-31T04:16:43;88968.56;;;-143.16;69.04
14885;BME280;7534;50.762;7.000;2023-01-31T04:19:09;88922.13;;;-143.16;69.20
14885;BME280;7534;50.762;7.000;2023-01-31T04:21:35;88912.03;;;-143.16;69.47
14885;BME280;7534;50.762;7.000;2023-01-31T04:24:01;88916.09;;;-143.16;69.40
14885;BME280;7534;50.762;7.000;2023-01-31T04:26:26;88877.72;;;-143.16;69.41
14885;BME280;7534;50.762;7.000;2023-01-31T04:28:52;88924.16;;;-143.16;69.43
14885;BME280;7534;50.762;7.000;2023-01-31T04:31:18;88982.72;;;-143.16;69.55
14885;BME280;7534;50.762;7.000;2023-01-31T04:33:43;88914.06;;;-143.16;69.84
14885;BME280;7534;50.762;7.000;2023-01-31T04:36:10;88891.84;;;-143.16;70.05
14885;BME280;7534;50.762;7.000;2023-01-31T04:38:36;88910.03;;;-143.16;70.51
14885;BME280;7534;50.762;7.000;2023-01-31T04:41:02;88976.66;;;-143.16;70.16
14885;BME280;7534;50.762;7.000;2023-01-31T04:43:27;88942.31;;;-143.16;70.26
14885;BME280;7534;50.762;7.000;2023-01-31T04:45:53;88986.75;;;-143.16;70.54
14885;BME280;7534;50.762;7.000;2023-01-31T04:48:18;88827.25;;;-143.16;70.90
14885;BME280;7534;50.762;7.000;2023-01-31T04:50:44;88938.28;;;-143.16;71.49
14885;BME280;7534;50.762;7.000;2023-01-31T04:53:10;88847.44;;;-143.16;71.70
14885;BME280;7534;50.762;7.000;2023-01-31T04:55:35;88887.81;;;-143.16;71.59
14885;BME280;7534;50.762;7.000;2023-01-31T04:58:01;88974.63;;;-143.16;71.44
14885;BME280;7534;50.762;7.000;2023-01-31T05:00:27;88932.22;;;-143.16;71.52
14885;BME280;7534;50.762;7.000;2023-01-31T05:02:53;88950.41;;;-143.16;71.58
14885;BME280;7534;50.762;7.000;2023-01-31T05:05:19;88964.53;;;-143.16;71.82
14885;BME280;7534;50.762;7.000;2023-01-31T05:07:45;88952.41;;;-143.16;71.94
14885;BME280;7534;50.762;7.000;2023-01-31T05:10:11;88928.19;;;-143.16;72.05
14885;BME280;7534;50.762;7.000;2023-01-31T05:12:37;88974.63;;;-143.16;72.04
14885;BME280;7534;50.762;7.000;2023-01-31T05:15:05;88938.28;;;-143.16;72.57
14885;BME280;7534;50.762;7.000;2023-01-31T05:17:33;88950.41;;;-143.16;72.67
14885;BME280;7534;50.762;7.000;2023-01-31T05:19:59;88928.19;;;-143.16;73.04
14885;BME280;7534;50.762;7.000;2023-01-31T05:22:25;88976.66;;;-143.16;72.94
14885;BME280;7534;50.762;7.000;2023-01-31T05:24:51;88928.19;;;-143.16;73.08
14885;BME280;7534;50.762;7.000;2023-01-31T05:27:18;88978.66;;;-143.16;73.33
14885;BME280;7534;50.762;7.000;2023-01-31T05:29:44;88944.34;;;-143.16;73.26
14885;BME280;7534;50.762;7.000;2023-01-31T05:32:11;88952.41;;;-143.16;73.08
14885;BME280;7534;50.762;7.000;2023-01-31T05:34:38;89010.97;;;-143.16;73.13
14885;BME280;7534;50.762;7.000;2023-01-31T05:37:04;88952.41;;;-143.16;72.86
14885;BME280;7534;50.762;7.000;2023-01-31T05:39:30;88936.28;;;-143.16;73.11
14885;BME280;7534;50.762;7.000;2023-01-31T05:41:56;88903.97;;;-143.16;73.24
14885;BME280;7534;50.762;7.000;2023-01-31T05:44:22;88948.38;;;-143.16;72.74
14885;BME280;7534;50.762;7.000;2023-01-31T05:46:48;88928.19;;;-143.16;72.73
14885;BME280;7534;50.762;7.000;2023-01-31T05:49:14;89041.25;;;-143.16;72.62
14885;BME280;7534;50.762;7.000;2023-01-31T05:51:40;88871.66;;;-143.16;72.31
14885;BME280;7534;50.762;7.000;2023-01-31T05:54:07;88924.16;;;-143.16;71.77
14885;BME280;7534;50.762;7.000;2023-01-31T05:56:32;88942.31;;;-143.16;71.88
14885;BME280;7534;50.762;7.000;2023-01-31T05:58:59;88952.41;;;-143.16;71.22
14885;BME280;7534;50.762;7.000;2023-01-31T06:01:27;88875.69;;;-143.16;70.88
14885;BME280;7534;50.762;7.000;2023-01-31T06:03:53;88875.69;;;-143.16;70.40
14885;BME280;7534;50.762;7.000;2023-01-31T06:06:20;88843.41;;;-143.16;69.79
14885;BME280;7534;50.762;7.000;2023-01-31T06:08:46;88815.13;;;-143.16;69.19
14885;BME280;7534;50.762;7.000;2023-01-31T06:11:13;88881.75;;;-143.16;69.02
14885;BME280;7534;50.762;7.000;2023-01-31T06:13:40;88861.56;;;-143.16;68.84
14885;BME280;7534;50.762;7.000;2023-01-31T06:16:10;88849.44;;;-143.16;68.72
14885;BME280;7534;50.762;7.000;2023-01-31T06:18:36;88875.69;;;-143.16;68.46
14885;BME280;7534;50.762;7.000;2023-01-31T06:21:01;88827.25;;;-143.16;68.24
14885;BME280;7534;50.762;7.000;2023-01-31T06:23:27;88928.19;;;-143.16;68.15
14885;BME280;7534;50.762;7.000;2023-01-31T06:25:54;88788.88;;;-143.16;68.20
14885;BME280;7534;50.762;7.000;2023-01-31T06:28:21;88837.34;;;-143.16;68.09
14885;BME280;7534;50.762;7.000;2023-01-31T06:30:47;88792.91;;;-143.16;68.56
14885;BME280;7534;50.762;7.000;2023-01-31T06:33:13;88875.69;;;-143.16;68.41
14885;BME280;7534;50.762;7.000;2023-01-31T06:35:39;88794.94;;;-143.16;68.61
14885;BME280;7534;50.762;7.000;2023-01-31T06:38:05;88835.31;;;-143.16;68.18
14885;BME280;7534;50.762;7.000;2023-01-31T06:40:31;88863.59;;;-143.16;68.41
14885;BME280;7534;50.762;7.000;2023-01-31T06:42:58;89134.16;;;-143.16;68.38
14885;BME280;7534;50.762;7.000;2023-01-31T06:45:24;88819.16;;;-143.16;67.97
14885;BME280;7534;50.762;7.000;2023-01-31T06:47:50;88986.75;;;-143.16;67.76
14885;BME280;7534;50.762;7.000;2023-01-31T06:50:17;88859.53;;;-143.16;67.37
14885;BME280;7534;50.762;7.000;2023-01-31T06:52:43;88827.25;;;-143.16;67.17
14885;BME280;7534;50.762;7.000;2023-01-31T06:55:09;88792.91;;;-143.16;66.92
14885;BME280;7534;50.762;7.000;2023-01-31T06:57:36;88811.09;;;-143.16;66.62
14885;BME280;7534;50.762;7.000;2023-01-31T07:00:03;88807.06;;;-143.16;66.33
14885;BME280;7534;50.762;7.000;2023-01-31T07:02:28;88839.34;;;-143.16;66.09
14885;BME280;7534;50.762;7.000;2023-01-31T07:04:55;88752.53;;;-143.16;65.88
14885;BME280;7534;50.762;7.000;2023-01-31T07:07:21;88867.63;;;-143.16;66.01
14885;BME280;7534;50.762;7.000;2023-01-31T07:09:46;88794.94;;;-143.16;65.69
14885;BME280;7534;50.762;7.000;2023-01-31T07:12:12;89105.88;;;-143.16;65.72
14885;BME280;7534;50.762;7.000;2023-01-31T07:14:38;88819.16;;;-143.16;65.82
14885;BME280;7534;50.762;7.000;2023-01-31T07:17:03;89047.31;;;-143.16;65.83
14885;BME280;7534;50.762;7.000;2023-01-31T07:19:29;89055.41;;;-143.16;65.87
14885;BME280;7534;50.762;7.000;2023-01-31T07:21:54;88803.00;;;-143.16;65.66
14885;BME280;7534;50.762;7.000;2023-01-31T07:24:20;88813.09;;;-143.16;65.15
14885;BME280;7534;50.762;7.000;2023-01-31T07:26:46;88760.63;;;-143.16;65.43
14885;BME280;7534;50.762;7.000;2023-01-31T07:29:12;88776.75;;;-143.16;65.19
14885;BME280;7534;50.762;7.000;2023-01-31T07:31:38;88770.72;;;-143.16;65.16
14885;BME280;7534;50.762;7.000;2023-01-31T07:34:04;88796.94;;;-143.16;64.93
14885;BME280;7534;50.762;7.000;2023-01-31T07:36:30;88782.81;;;-143.16;64.57
14885;BME280;7534;50.762;7.000;2023-01-31T07:38:57;89029.16;;;-143.16;64.07
14885;BME280;7534;50.762;7.000;2023-01-31T07:41:24;88794.94;;;-143.16;63.93
14885;BME280;7534;50.762;7.000;2023-01-31T07:43:50;88669.75;;;-143.16;63.67
14885;BME280;7534;50.762;7.000;2023-01-31T07:46:17;88786.84;;;-143.16;63.41
14885;BME280;7534;50.762;7.000;2023-01-31T07:48:42;88805.03;;;-143.16;63.09
14885;BME280;7534;50.762;7.000;2023-01-31T07:51:08;88768.69;;;-143.16;62.68
14885;BME280;7534;50.762;7.000;2023-01-31T07:53:37;88730.31;;;-143.16;62.22
14885;BME280;7534;50.762;7.000;2023-01-31T07:56:18;88738.41;;;-143.16;61.44
14885;BME280;7534;50.762;7.000;2023-01-31T07:58:46;88738.41;;;-143.16;61.21
14885;BME280;7534;50.762;7.000;2023-01-31T08:01:18;88677.84;;;-143.16;60.47
14885;BME280;7534;50.762;7.000;2023-01-31T08:04:10;88722.25;;;-143.16;60.28
14885;BME280;7534;50.762;7.000;2023-01-31T08:06:39;88920.13;;;-143.16;59.86
14885;BME280;7534;50.762;7.000;2023-01-31T08:09:05;88669.75;;;-143.16;59.51
14885;BME280;7534;50.762;7.000;2023-01-31T08:11:31;88956.47;;;-143.16;59.39
14885;BME280;7534;50.762;7.000;2023-01-31T08:13:56;88710.13;;;-143.16;59.39
14885;BME280;7534;50.762;7.000;2023-01-31T08:16:23;88700.03;;;-143.16;59.10
14885;BME280;7534;50.762;7.000;2023-01-31T08:18:50;88629.38;;;-143.16;59.16
14885;BME280;7534;50.762;7.000;2023-01-31T08:21:17;88665.72;;;-143.16;58.97
14885;BME280;7534;50.762;7.000;2023-01-31T08:23:43;88603.13;;;-143.16;59.22
14885;BME280;7534;50.762;7.000;2023-01-31T08:26:16;88704.09;;;-143.16;59.13
14885;BME280;7534;50.762;7.000;2023-01-31T08:28:44;88750.53;;;-143.16;59.20
14885;BME280;7534;50.762;7.000;2023-01-31T08:31:15;88687.94;;;-143.16;58.70
14885;BME280;7534;50.762;7.000;2023-01-31T08:33:41;88754.56;;;-143.16;59.07
14885;BME280;7534;50.762;7.000;2023-01-31T08:36:13;88532.47;;;-143.16;59.19
14885;BME280;7534;50.762;7.000;2023-01-31T08:38:39;88635.44;;;-143.16;58.61
14885;BME280;7534;50.762;7.000;2023-01-31T08:41:04;88702.06;;;-143.16;59.01
14885;BME280;7534;50.762;7.000;2023-01-31T08:43:30;88708.13;;;-143.16;59.26
14885;BME280;7534;50.762;7.000;2023-01-31T08:45:57;88580.94;;;-143.16;59.29
14885;BME280;7534;50.762;7.000;2023-01-31T08:48:22;88597.06;;;-143.16;59.08
14885;BME280;7534;50.762;7.000;2023-01-31T08:50:48;88635.44;;;-143.16;58.43
14885;BME280;7534;50.762;7.000;2023-01-31T08:53:14;88641.50;;;-143.16;57.94
14885;BME280;7534;50.762;7.000;2023-01-31T08:55:39;88704.09;;;-143.16;57.18
14885;BME280;7534;50.762;7.000;2023-01-31T08:58:05;88867.63;;;-143.16;57.31
14885;BME280;7534;50.762;7.000;2023-01-31T09:00:31;88562.75;;;-143.16;56.97
14885;BME280;7534;50.762;7.000;2023-01-31T09:02:59;88609.19;;;-143.16;56.89
14885;BME280;7534;50.762;7.000;2023-01-31T09:05:28;88574.88;;;-143.16;56.30
14885;BME280;7534;50.762;7.000;2023-01-31T09:07:54;88546.59;;;-143.16;55.88
14885;BME280;7534;50.762;7.000;2023-01-31T09:10:21;88524.41;;;-143.16;55.75
14885;BME280;7534;50.762;7.000;2023-01-31T09:12:47;88522.38;;;-143.16;55.61
14885;BME280;7534;50.762;7.000;2023-01-31T09:15:13;88528.44;;;-143.16;55.46
14885;BME280;7534;50.762;7.000;2023-01-31T09:17:40;88540.53;;;-143.16;55.32
14885;BME280;7534;50.762;7.000;2023-01-31T09:20:07;88443.66;;;-143.16;55.40
14885;BME280;7534;50.762;7.000;2023-01-31T09:22:35;88568.81;;;-143.16;55.13
14885;BME280;7534;50.762;7.000;2023-01-31T09:25:02;88580.94;;;-143.16;55.41
14885;BME280;7534;50.762;7.000;2023-01-31T09:27:28;88548.63;;;-143.16;55.85
14885;BME280;7534;50.762;7.000;2023-01-31T09:29:54;88572.84;;;-143.16;56.11
14885;BME280;7534;50.762;7.000;2023-01-31T09:32:20;88516.31;;;-143.16;55.80
14885;BME280;7534;50.762;7.000;2023-01-31T09:34:46;88488.06;;;-143.16;56.46
14885;BME280;7534;50.762;7.000;2023-01-31T09:37:14;88550.66;;;-143.16;56.34
14885;BME280;7534;50.762;7.000;2023-01-31T09:39:40;88538.53;;;-143.16;56.10
14885;BME280;7534;50.762;7.000;2023-01-31T09:45:00;88580.94;;;-143.16;56.15
14885;BME280;7534;50.762;7.000;2023-01-31T09:47:38;88465.84;;;-143.16;56.30
14885;BME280;7534;50.762;7.000;2023-01-31T09:50:26;88544.59;;;-143.16;56.64
14885;BME280;7534;50.762;7.000;2023-01-31T09:52:56;88593.03;;;-143.16;57.04
14885;BME280;7534;50.762;7.000;2023-01-31T09:55:52;88546.59;;;-143.16;57.54
14885;BME280;7534;50.762;7.000;2023-01-31T09:58:53;88532.47;;;-143.16;58.21
14885;BME280;7534;50.762;7.000;2023-01-31T10:08:10;88597.06;;;-143.16;57.43
14885;BME280;7534;50.762;7.000;2023-01-31T10:10:45;88475.94;;;-143.16;57.72
14885;BME280;7534;50.762;7.000;2023-01-31T10:13:52;88578.91;;;-143.16;57.62
14885;BME280;7534;50.762;7.000;2023-01-31T10:22:10;88576.88;;;-143.16;58.08
14885;BME280;7534;50.762;7.000;2023-01-31T10:24:48;88627.38;;;-143.16;57.88
14885;BME280;7534;50.762;7.000;2023-01-31T10:27:35;88548.63;;;-143.16;57.68
14885;BME280;7534;50.762;7.000;2023-01-31T10:30:15;88546.59;;;-143.16;57.23
14885;BME280;7534;50.762;7.000;2023-01-31T10:32:44;88540.53;;;-143.16;57.31
14885;BME280;7534;50.762;7.000;2023-01-31T10:38:03;88475.94;;;-143.16;57.33
14885;BME280;7534;50.762;7.000;2023-01-31T10:40:38;88510.28;;;-143.16;57.14
14885;BME280;7534;50.762;7.000;2023-01-31T10:43:21;88548.63;;;-143.16;56.88
14885;BME280;7534;50.762;7.000;2023-01-31T10:45:58;88482.00;;;-143.16;56.47
14885;BME280;7534;50.762;7.000;2023-01-31T10:48:27;88427.50;;;-143.16;55.66
14885;BME280;7534;50.762;7.000;2023-01-31T10:51:16;88419.41;;;-143.16;56.25
14885;BME280;7534;50.762;7.000;2023-01-31T10:54:12;88479.97;;;-143.16;56.50
14885;BME280;7534;50.762;7.000;2023-01-31T10:56:48;88459.78;;;-143.16;56.88
14885;BME280;7534;50.762;7.000;2023-01-31T10:59:36;88463.84;;;-143.16;57.13
14885;BME280;7534;50.762;7.000;2023-01-31T11:02:03;88528.44;;;-143.16;58.12
14885;BME280;7534;50.762;7.000;2023-01-31T11:04:41;88439.59;;;-143.16;58.42
14885;BME280;7534;50.762;7.000;2023-01-31T11:07:08;88492.09;;;-143.16;58.73
14885;BME280;7534;50.762;7.000;2023-01-31T11:09:42;88550.66;;;-143.16;59.86
14885;BME280;7534;50.762;7.000;2023-01-31T11:12:10;88459.78;;;-143.16;60.62
14885;BME280;7534;50.762;7.000;2023-01-31T11:14:36;88530.47;;;-143.16;61.99
14885;BME280;7534;50.762;7.000;2023-01-31T11:17:12;88554.69;;;-143.16;62.49
14885;BME280;7534;50.762;7.000;2023-01-31T11:19:50;88532.47;;;-143.16;63.16
14885;BME280;7534;50.762;7.000;2023-01-31T11:22:32;88623.31;;;-143.16;62.78
14885;BME280;7534;50.762;7.000;2023-01-31T11:25:02;88536.50;;;-143.16;62.86
14885;BME280;7534;50.762;7.000;2023-01-31T11:27:41;88665.72;;;-143.16;62.46
14885;BME280;7534;50.762;7.000;2023-01-31T11:30:24;88556.69;;;-143.16;61.21
14885;BME280;7534;50.762;7.000;2023-01-31T11:32:51;88486.03;;;-143.16;60.21
14885;BME280;7534;50.762;7.000;2023-01-31T11:37:57;88576.88;;;-143.16;60.02
14885;BME280;7534;50.762;7.000;2023-01-31T11:40:38;88455.75;;;-143.16;59.88
14885;BME280;7534;50.762;7.000;2023-01-31T11:43:23;88475.94;;;-143.16;60.77
14885;BME280;7534;50.762;7.000;2023-01-31T11:45:59;88455.75;;;-143.16;61.24
14885;BME280;7534;50.762;7.000;2023-01-31T11:48:42;88538.53;;;-143.16;61.04
14885;BME280;7534;50.762;7.000;2023-01-31T11:51:12;88488.06;;;-143.16;61.11
14885;BME280;7534;50.762;7.000;2023-01-31T11:53:50;88714.19;;;-143.16;60.53
14885;BME280;7534;50.762;7.000;2023-01-31T11:56:26;88492.09;;;-143.16;58.96
14885;BME280;7534;50.762;7.000;2023-01-31T11:59:01;88584.97;;;-143.16;58.46
14885;BME280;7534;50.762;7.000;2023-01-31T12:01:31;88479.97;;;-143.16;58.62
14885;BME280;7534;50.762;7.000;2023-01-31T12:04:04;88467.88;;;-143.16;58.70
14885;BME280;7534;50.762;7.000;2023-01-31T12:06:39;88362.91;;;-143.16;57.68
14885;BME280;7534;50.762;7.000;2023-01-31T12:09:28;88350.78;;;-143.16;57.40
14885;BME280;7534;50.762;7.000;2023-01-31T12:12:01;88427.50;;;-143.16;57.36
14885;BME280;7534;50.762;7.000;2023-01-31T12:14:40;88467.88;;;-143.16;56.63
14885;BME280;7534;50.762;7.000;2023-01-31T12:17:12;88334.63;;;-143.16;56.28
14885;BME280;7534;50.762;7.000;2023-01-31T12:20:11;88344.72;;;-143.16;56.30
14885;BME280;7534;50.762;7.000;2023-01-31T12:23:17;88354.81;;;-143.16;56.27
14885;BME280;7534;50.762;7.000;2023-01-31T12:26:07;88403.28;;;-143.16;56.44
14885;BME280;7534;50.762;7.000;2023-01-31T12:31:42;88488.06;;;-143.16;57.28
14885;BME280;7534;50.762;7.000;2023-01-31T12:34:41;88486.03;;;-143.16;57.62
14885;BME280;7534;50.762;7.000;2023-01-31T12:37:26;88538.53;;;-143.16;57.98
14885;BME280;7534;50.762;7.000;2023-01-31T12:40:21;88477.97;;;-143.16;57.87
14885;BME280;7534;50.762;7.000;2023-01-31T12:42:55;88492.09;;;-143.16;57.80
14885;BME280;7534;50.762;7.000;2023-01-31T12:48:40;88488.06;;;-143.16;58.10
14885;BME280;7534;50.762;7.000;2023-01-31T12:51:39;88669.75;;;-143.16;58.01
14885;BME280;7534;50.762;7.000;2023-01-31T12:57:54;88467.88;;;-143.16;59.22
14885;BME280;7534;50.762;7.000;2023-01-31T13:01:01;88490.06;;;-143.16;59.16
14885;BME280;7534;50.762;7.000;2023-01-31T13:06:22;88449.69;;;-143.16;59.71
14885;BME280;7534;50.762;7.000;2023-01-31T13:08:57;88471.91;;;-143.16;59.68
14885;BME280;7534;50.762;7.000;2023-01-31T13:14:11;88439.59;;;-143.16;59.97
14885;BME280;7534;50.762;7.000;2023-01-31T13:16:43;88383.09;;;-143.16;60.29
14885;BME280;7534;50.762;7.000;2023-01-31T13:19:33;88405.28;;;-143.16;60.49
14885;BME280;7534;50.762;7.000;2023-01-31T13:22:38;88516.31;;;-143.16;60.94
14885;BME280;7534;50.762;7.000;2023-01-31T13:25:46;88465.84;;;-143.16;60.44
14885;BME280;7534;50.762;7.000;2023-01-31T13:28:49;88427.50;;;-143.16;60.25
14885;BME280;7534;50.762;7.000;2023-01-31T13:31:27;88411.34;;;-143.16;60.30
14885;BME280;7534;50.762;7.000;2023-01-31T13:34:34;88469.88;;;-143.16;60.22
14885;BME280;7534;50.762;7.000;2023-01-31T13:37:13;88445.66;;;-143.16;60.14
14885;BME280;7534;50.762;7.000;2023-01-31T13:39:48;88459.78;;;-143.16;59.46
14885;BME280;7534;50.762;7.000;2023-01-31T13:42:15;88415.38;;;-143.16;59.38
14885;BME280;7534;50.762;7.000;2023-01-31T13:44:43;88411.34;;;-143.16;59.19
14885;BME280;7534;50.762;7.000;2023-01-31T13:47:32;88383.09;;;-143.16;59.55
14885;BME280;7534;50.762;7.000;2023-01-31T13:50:26;88443.66;;;-143.16;59.92
14885;BME280;7534;50.762;7.000;2023-01-31T13:52:57;88368.94;;;-143.16;59.97
14885;BME280;7534;50.762;7.000;2023-01-31T13:55:38;88441.63;;;-143.16;60.19
14885;BME280;7534;50.762;7.000;2023-01-31T13:58:28;88447.69;;;-143.16;60.38
14885;BME280;7534;50.762;7.000;2023-01-31T14:01:07;88409.31;;;-143.16;60.56
14885;BME280;7534;50.762;7.000;2023-01-31T14:07:14;88459.78;;;-143.16;61.00
14885;BME280;7534;50.762;7.000;2023-01-31T14:14:47;88471.91;;;-143.16;61.80
14885;BME280;7534;50.762;7.000;2023-01-31T14:20:28;88441.63;;;-143.16;62.44
14885;BME280;7534;50.762;7.000;2023-01-31T14:23:31;88653.59;;;-143.16;63.71
14885;BME280;7534;50.762;7.000;2023-01-31T14:26:31;88512.28;;;-143.16;64.65